14Y

Todd Field Airport

Long Prairie, Minnesota, USA
METAR K14Y 132156Z AUTO 20003KT BKN080 M06/M12 A3038 RMK AO2 PWINO
Observed Flight Rules
Nov-13 @ 21:56 UTC (33 minutes ago)
Wind Clouds
200° at 3 knots
  • Broken at 8,000' AGL
Temperatures Readings
Current -6°C / 21°F
Dewpoint -12°C / 10°F
Humidity 63%
Altimeter 30.38" Hg
Pressure 1029 hPa
Elevation 406
METAR K14Y 132156Z AUTO 20003KT BKN080 M06/M12 A3038 RMK AO2 PWINO
Observed Flight Rules
Nov-13 @ 21:56 UTC
(33 minutes ago)
Wind
200° at 3 knots
Clouds
  • Broken at 8,000' AGL
Temperature Dewpoint
-6°C / 21°F -12°C / 10°F
Humidity Altimeter Pressure
63% 30.38" Hg 1029 hPa